Time;durP1;ratioP1;P1;durP2;ratioP2;P2;SDS_P1;SDS_P2;PMS_P1;PMS_P2;Temp;Humidity;BMP_temperature;BMP_pressure;BME280_temperature;BME280_humidity;BME280_pressure;Samples;Min_cycle;Max_cycle;Signal;HPM_P1;HPM_P2
2021/12/21 00:00:22;;;;;;;;;67.25;49.75;;;;;4.41;66.38;101567.56;5037565;28;45383;-60
2021/12/21 00:02:50;;;;;;;;;36.75;31.00;;;;;4.37;66.45;101560.63;5053812;28;45410;-69
2021/12/21 00:05:19;;;;;;;;;34.50;26.00;;;;;4.37;66.78;101561.47;5054528;28;45366;-68
2021/12/21 00:07:47;;;;;;;;;32.25;24.75;;;;;4.36;66.80;101564.09;5054326;28;46517;-67
2021/12/21 00:10:13;;;;;;;;;30.25;25.00;;;;;4.32;67.21;101555.41;5054918;28;45378;-63
2021/12/21 00:12:49;;;;;;;;;34.00;28.75;;;;;4.31;66.43;101561.47;5063897;28;45197;-69
2021/12/21 00:15:22;;;;;;;;;58.75;46.50;;;;;4.21;66.74;101538.88;5057653;28;45300;-77
2021/12/21 00:18:03;;;;;;;;;46.50;37.75;;;;;4.26;66.83;101549.31;5057294;28;46377;-73
2021/12/21 00:20:44;;;;;;;;;37.00;26.25;;;;;4.24;67.02;101541.50;5057535;28;45477;-64
2021/12/21 00:25:40;;;;;;;;;63.25;50.00;;;;;4.20;66.89;101543.22;5056427;28;45453;-68
2021/12/21 00:28:06;;;;;;;;;33.75;25.75;;;;;4.17;66.69;101545.81;5055780;28;45429;-61
2021/12/21 00:30:31;;;;;;;;;29.25;26.50;;;;;4.17;66.67;101545.81;5038961;28;45339;-60
2021/12/21 00:32:57;;;;;;;;;29.00;24.75;;;;;4.19;67.20;101544.06;5057631;28;45401;-65
2021/12/21 00:35:22;;;;;;;;;24.25;19.75;;;;;4.17;66.89;101532.78;5040092;28;45446;-67
2021/12/21 00:37:47;;;;;;;;;26.00;22.75;;;;;4.13;66.68;101524.97;5057420;28;46179;-67
2021/12/21 00:40:13;;;;;;;;;19.75;18.25;;;;;4.13;66.77;101536.25;5056744;28;45560;-64
2021/12/21 00:42:39;;;;;;;;;20.25;16.00;;;;;4.07;66.12;101524.09;5056354;28;45434;-66
2021/12/21 00:45:05;;;;;;;;;30.25;25.00;;;;;4.15;66.85;101534.53;5055969;28;45725;-64
2021/12/21 00:47:33;;;;;;;;;25.50;20.25;;;;;4.09;66.95;101531.91;5055472;28;46808;-62
2021/12/21 00:50:01;;;;;;;;;24.00;19.00;;;;;4.13;66.89;101543.22;5056125;28;45393;-66
2021/12/21 00:52:26;;;;;;;;;24.50;18.50;;;;;4.11;66.60;101540.59;5058236;28;45366;-67
2021/12/21 00:54:52;;;;;;;;;24.50;20.25;;;;;4.08;67.05;101544.06;5042599;28;45234;-65
2021/12/21 00:57:17;;;;;;;;;24.75;21.00;;;;;4.02;67.19;101527.56;5062626;28;45291;-64
2021/12/21 00:59:43;;;;;;;;;22.75;16.75;;;;;4.05;67.09;101530.16;5068752;28;45374;-66
2021/12/21 01:02:09;;;;;;;;;25.75;21.25;;;;;4.04;67.64;101531.03;5058087;28;45254;-65
2021/12/21 01:04:40;;;;;;;;;28.50;22.50;;;;;4.02;67.51;101532.75;5057767;28;45573;-67
2021/12/21 01:07:17;;;;;;;;;24.75;19.00;;;;;4.02;67.34;101530.16;5057517;28;46320;-63
2021/12/21 01:15:21;;;;;;;;;21.00;18.75;;;;;3.91;67.43;101520.59;5057781;28;45237;-66
2021/12/21 01:17:57;;;;;;;;;23.50;23.50;;;;;3.90;67.83;101518.00;5057477;28;46403;-67
2021/12/21 01:20:29;;;;;;;;;24.00;17.50;;;;;3.88;67.58;101523.19;5057570;28;45284;-66
2021/12/21 01:28:29;;;;;;;;;21.00;17.50;;;;;3.74;67.64;101507.53;5056973;28;45376;-60
2021/12/21 01:36:13;;;;;;;;;20.00;17.00;;;;;3.75;68.72;101511.00;5058543;28;45541;-61
2021/12/21 01:39:08;;;;;;;;;22.25;18.00;;;;;3.73;68.62;101510.13;5058394;28;46309;-67
2021/12/21 01:41:41;;;;;;;;;27.75;23.00;;;;;3.69;68.69;101514.44;5062601;28;45304;-66
2021/12/21 01:49:45;;;;;;;;;23.50;20.75;;;;;3.63;68.88;101519.63;5056537;28;45541;-67
2021/12/21 01:52:16;;;;;;;;;25.75;17.50;;;;;3.59;68.44;101512.66;5056615;28;45305;-65
2021/12/21 01:54:42;;;;;;;;;25.25;19.00;;;;;3.61;69.00;101524.84;5056546;28;45375;-66
2021/12/21 01:57:09;;;;;;;;;18.75;18.00;;;;;3.60;69.51;101519.59;5056724;28;45467;-63
2021/12/21 01:59:36;;;;;;;;;31.75;24.25;;;;;3.56;68.60;101512.66;5056479;28;45411;-58
2021/12/21 02:02:03;;;;;;;;;28.25;21.50;;;;;3.57;69.22;101517.88;5056822;28;45320;-66
2021/12/21 02:04:28;;;;;;;;;26.75;21.00;;;;;3.55;69.01;101524.81;5056568;28;45292;-65
2021/12/21 02:06:54;;;;;;;;;17.75;16.75;;;;;3.54;69.55;101515.25;5056768;28;45455;-65
2021/12/21 02:09:19;;;;;;;;;23.75;16.75;;;;;3.51;69.08;101510.06;5056625;28;45233;-63
2021/12/21 02:11:47;;;;;;;;;25.25;21.25;;;;;3.51;69.50;101515.25;5057481;28;45930;-63
2021/12/21 02:14:13;;;;;;;;;19.00;19.00;;;;;3.50;69.24;101510.91;5056525;28;45438;-65
2021/12/21 02:16:58;;;;;;;;;24.50;22.00;;;;;3.42;69.68;101494.41;5056429;28;45397;-64
2021/12/21 02:19:32;;;;;;;;;24.25;21.25;;;;;3.49;69.86;101509.19;5055686;28;47015;-65
2021/12/21 02:22:08;;;;;;;;;23.00;19.25;;;;;3.47;69.53;101505.69;5055204;28;45418;-66
2021/12/21 02:24:43;;;;;;;;;28.00;21.00;;;;;3.49;69.57;101510.03;5055923;28;45520;-67
2021/12/21 02:27:25;;;;;;;;;19.50;17.00;;;;;3.47;68.98;101500.50;5055101;28;45449;-66
2021/12/21 02:29:51;;;;;;;;;18.00;14.00;;;;;3.49;69.99;101502.22;5056384;28;46380;-66
2021/12/21 02:32:16;;;;;;;;;17.75;14.00;;;;;3.48;69.23;101497.88;5054482;28;45878;-66
2021/12/21 02:34:44;;;;;;;;;20.50;19.50;;;;;3.48;69.55;101494.44;5056206;28;45399;-64
2021/12/21 02:37:11;;;;;;;;;25.00;18.50;;;;;3.48;69.06;101495.28;5056430;28;45365;-66
2021/12/21 02:39:37;;;;;;;;;21.00;18.00;;;;;3.48;69.58;101484.03;5054379;28;45435;-58
2021/12/21 02:42:04;;;;;;;;;19.25;17.00;;;;;3.48;69.86;101489.22;5054614;28;45336;-65
2021/12/21 02:44:30;;;;;;;;;28.75;25.50;;;;;3.42;69.82;101484.84;5054260;28;45732;-67
2021/12/21 02:46:56;;;;;;;;;29.25;24.00;;;;;3.44;70.10;101487.47;5054807;28;45522;-63
2021/12/21 02:49:21;;;;;;;;;30.50;22.00;;;;;3.43;69.16;101477.94;5054255;28;45441;-67
2021/12/21 02:51:48;;;;;;;;;26.50;24.50;;;;;3.39;70.03;101471.84;5055532;28;45363;-66
2021/12/21 02:54:15;;;;;;;;;35.75;28.75;;;;;3.39;69.56;101478.78;5056120;28;45490;-66
2021/12/21 02:56:41;;;;;;;;;35.75;28.25;;;;;3.35;69.59;101470.09;5061870;28;45470;-65
2021/12/21 02:59:06;;;;;;;;;25.00;24.25;;;;;3.31;69.57;101470.94;5056726;28;46021;-64
2021/12/21 03:01:32;;;;;;;;;30.00;25.00;;;;;3.28;69.74;101466.63;5057266;28;45370;-63
2021/12/21 03:03:58;;;;;;;;;28.75;23.00;;;;;3.26;70.10;101464.84;5063044;28;45212;-63
2021/12/21 03:09:42;;;;;;;;;25.00;23.00;;;;;3.12;69.97;101444.88;5012997;28;45285;-65
2021/12/21 03:14:47;;;;;;;;;26.25;21.75;;;;;3.18;71.09;101462.19;5056094;28;45359;-66
2021/12/21 03:17:12;;;;;;;;;35.50;29.50;;;;;3.10;70.12;101456.09;5059423;28;45387;-64
2021/12/21 03:19:38;;;;;;;;;27.75;23.50;;;;;3.12;70.72;101459.56;5055751;28;46523;-64
2021/12/21 03:22:06;;;;;;;;;23.00;18.75;;;;;3.10;71.28;101464.78;5057020;28;45407;-65
2021/12/21 03:24:31;;;;;;;;;25.00;22.00;;;;;3.11;71.40;101465.63;5037674;28;45373;-67
2021/12/21 03:26:57;;;;;;;;;27.00;21.00;;;;;3.07;71.05;101463.03;5055855;28;45334;-65
2021/12/21 03:29:23;;;;;;;;;32.25;21.75;;;;;3.07;71.26;101459.56;5056448;28;45391;-64
2021/12/21 03:31:48;;;;;;;;;27.75;21.25;;;;;3.05;71.53;101463.88;5057879;28;45358;-67
2021/12/21 03:34:14;;;;;;;;;35.75;26.50;;;;;3.04;71.55;101465.59;5058148;28;45388;-67
2021/12/21 03:36:41;;;;;;;;;27.75;21.50;;;;;3.03;71.64;101455.22;5057257;28;45799;-68
2021/12/21 03:39:09;;;;;;;;;29.25;24.00;;;;;3.02;70.91;101456.94;5061278;28;45302;-66
2021/12/21 03:41:40;;;;;;;;;23.00;21.25;;;;;3.00;71.43;101461.25;5057715;28;45387;-66
2021/12/21 03:44:08;;;;;;;;;35.25;25.00;;;;;2.94;71.65;101450.81;5056574;28;45409;-67
2021/12/21 03:46:34;;;;;;;;;25.75;21.25;;;;;2.97;71.24;101460.38;5059590;28;45881;-66
2021/12/21 03:49:10;;;;;;;;;25.50;20.50;;;;;2.94;71.92;101457.78;5058426;28;46169;-62
2021/12/21 03:51:35;;;;;;;;;23.75;23.50;;;;;2.92;71.97;101460.34;5059088;28;45340;-65
2021/12/21 03:54:00;;;;;;;;;27.75;21.75;;;;;2.88;71.89;101462.06;5058684;28;45307;-65
2021/12/21 03:56:40;;;;;;;;;30.00;28.00;;;;;2.87;72.09;101459.44;5041005;28;45317;-63
2021/12/21 03:59:06;;;;;;;;;29.75;21.75;;;;;2.87;71.70;101468.13;5058908;28;46515;-65
2021/12/21 04:01:32;;;;;;;;;26.50;22.75;;;;;2.85;72.19;101459.47;5060580;28;45331;-64
2021/12/21 04:03:58;;;;;;;;;33.50;29.25;;;;;2.83;73.02;101463.78;5059873;28;45375;-66
2021/12/21 04:06:23;;;;;;;;;29.25;27.75;;;;;2.82;72.31;101461.16;5063368;28;45498;-67
2021/12/21 04:08:48;;;;;;;;;26.50;22.00;;;;;2.77;72.11;101463.75;5060320;28;46434;-66
2021/12/21 04:11:14;;;;;;;;;36.00;31.50;;;;;2.74;73.20;101466.31;5058430;28;45223;-65
2021/12/21 04:13:40;;;;;;;;;38.00;34.50;;;;;2.67;72.72;101451.53;5058992;28;45178;-67
2021/12/21 04:16:06;;;;;;;;;34.75;31.50;;;;;2.67;73.65;101452.41;5058784;28;45296;-61
2021/12/21 04:18:38;;;;;;;;;41.50;32.00;;;;;2.65;73.88;101455.84;5060220;28;47076;-69
2021/12/21 04:21:05;;;;;;;;;45.50;34.75;;;;;2.60;72.96;101451.47;5058735;28;45621;-62
2021/12/21 04:23:30;;;;;;;;;39.25;33.25;;;;;2.60;73.75;101446.28;5063173;28;45371;-66
2021/12/21 04:25:56;;;;;;;;;42.50;30.75;;;;;2.58;74.22;101449.75;5066389;28;45322;-66
2021/12/21 04:28:21;;;;;;;;;40.75;33.75;;;;;2.57;74.03;101446.25;5060098;28;45613;-65
2021/12/21 04:30:47;;;;;;;;;35.00;31.75;;;;;2.56;73.58;101447.13;5058255;28;45378;-67
2021/12/21 04:33:12;;;;;;;;;40.00;33.25;;;;;2.53;73.33;101441.06;5059859;28;45319;-65
2021/12/21 04:35:38;;;;;;;;;40.50;34.50;;;;;2.47;73.78;101436.66;5058725;28;45554;-67
2021/12/21 04:41:08;;;;;;;;;37.50;28.75;;;;;2.48;74.72;101449.69;5048827;28;45590;-67
2021/12/21 04:43:34;;;;;;;;;31.00;25.50;;;;;1.95;74.27;101360.13;5058091;28;45343;-67
2021/12/21 04:46:00;;;;;;;;;34.25;29.50;;;;;2.43;74.49;101448.78;5058572;28;45482;-66
2021/12/21 04:48:26;;;;;;;;;37.75;29.00;;;;;2.43;74.28;101447.88;5058661;28;45328;-64
2021/12/21 04:50:52;;;;;;;;;33.25;25.50;;;;;2.38;74.05;101442.69;5058624;28;45319;-65
2021/12/21 04:53:17;;;;;;;;;34.75;28.00;;;;;2.38;74.14;101450.47;5069781;28;45376;-68
2021/12/21 04:55:42;;;;;;;;;28.50;23.50;;;;;2.33;74.15;101444.38;5061309;28;45268;-67
2021/12/21 04:58:08;;;;;;;;;28.25;23.25;;;;;2.32;74.45;101442.63;5059042;28;46389;-66
2021/12/21 05:00:34;;;;;;;;;35.25;24.50;;;;;2.31;75.26;101440.91;5060931;28;45354;-67
2021/12/21 05:03:00;;;;;;;;;27.25;20.50;;;;;2.23;74.69;101430.44;5057709;28;45357;-67
2021/12/21 05:05:26;;;;;;;;;26.00;20.75;;;;;2.24;75.24;101433.91;5058244;28;45466;-66
2021/12/21 05:08:05;;;;;;;;;31.25;23.00;;;;;2.25;74.97;101435.66;5057860;28;45994;-67
2021/12/21 05:10:31;;;;;;;;;28.50;20.00;;;;;2.22;74.70;101436.47;5040452;28;45254;-66
2021/12/21 05:12:57;;;;;;;;;27.25;23.25;;;;;2.20;75.47;101438.19;5057513;28;45299;-63
2021/12/21 05:15:22;;;;;;;;;30.50;19.00;;;;;2.21;75.12;101444.28;5057479;28;45291;-64
2021/12/21 05:17:48;;;;;;;;;23.75;22.75;;;;;2.20;75.36;101443.38;5057277;28;45978;-64
2021/12/21 05:20:13;;;;;;;;;23.25;18.75;;;;;2.18;75.01;101442.50;5059130;28;45261;-65
2021/12/21 05:22:38;;;;;;;;;25.75;20.50;;;;;2.20;75.54;101448.59;5057627;28;45598;-63
2021/12/21 05:25:04;;;;;;;;;21.00;15.25;;;;;2.21;74.59;101449.47;5057524;28;45437;-63
2021/12/21 05:27:30;;;;;;;;;21.50;18.00;;;;;2.21;75.39;101452.06;5056861;28;46359;-64
2021/12/21 05:29:55;;;;;;;;;23.50;18.25;;;;;2.17;74.87;101439.06;5057276;28;45310;-65
2021/12/21 05:32:20;;;;;;;;;19.50;17.50;;;;;2.22;74.77;101446.00;5057323;28;45355;-63
2021/12/21 05:34:46;;;;;;;;;20.50;17.25;;;;;2.18;75.33;101446.00;5059139;28;45430;-64
2021/12/21 05:37:11;;;;;;;;;22.25;18.75;;;;;2.19;74.85;101442.53;5059771;28;45371;-69
2021/12/21 05:39:43;;;;;;;;;22.75;16.00;;;;;2.21;75.26;101452.06;5057074;28;45467;-69
2021/12/21 05:42:10;;;;;;;;;19.00;15.50;;;;;2.17;74.82;101451.16;5056846;28;45261;-67
2021/12/21 05:44:35;;;;;;;;;19.50;14.50;;;;;2.14;74.80;101436.44;5056866;28;45335;-67
2021/12/21 05:47:01;;;;;;;;;19.75;16.00;;;;;2.21;75.58;101444.28;5056937;28;45383;-70
2021/12/21 05:49:26;;;;;;;;;19.00;15.00;;;;;2.21;75.11;101449.47;5056157;28;45446;-70
2021/12/21 05:51:52;;;;;;;;;19.25;15.00;;;;;2.18;74.99;101452.91;5038555;28;45424;-70
2021/12/21 05:54:21;;;;;;;;;21.75;18.00;;;;;2.17;74.81;101445.97;5056971;28;45328;-66
2021/12/21 05:56:47;;;;;;;;;13.00;13.00;;;;;2.14;75.38;101433.84;5056615;28;46856;-63
2021/12/21 05:59:13;;;;;;;;;17.25;13.25;;;;;2.18;74.41;101446.00;5056957;28;45247;-71
2021/12/21 06:01:40;;;;;;;;;20.75;14.25;;;;;2.19;74.28;101455.53;5056814;28;45224;-70
2021/12/21 06:04:05;;;;;;;;;20.75;15.25;;;;;2.19;74.39;101454.63;5057419;28;45339;-70
2021/12/21 06:06:32;;;;;;;;;20.00;14.00;;;;;2.18;75.18;101451.19;5057945;28;46757;-70
2021/12/21 06:09:00;;;;;;;;;23.25;15.25;;;;;2.19;75.50;101452.03;5056595;28;45346;-69
2021/12/21 06:11:26;;;;;;;;;23.25;13.75;;;;;2.19;75.00;101459.81;5056449;28;45365;-69
2021/12/21 06:26:55;;;;;;;;;24.50;18.75;;;;;2.05;75.61;101457.09;5056812;28;45449;-70
2021/12/21 06:29:20;;;;;;;;;23.50;15.75;;;;;2.02;75.25;101462.25;5041081;28;45486;-69
2021/12/21 06:31:46;;;;;;;;;17.50;14.00;;;;;1.99;75.85;101457.91;5059934;28;45349;-70
2021/12/21 06:34:12;;;;;;;;;28.00;19.50;;;;;1.96;75.65;101462.19;5061455;28;45355;-70
2021/12/21 06:36:37;;;;;;;;;18.75;14.50;;;;;1.86;76.26;101441.34;5056313;28;46698;-67
2021/12/21 06:39:06;;;;;;;;;24.50;19.00;;;;;1.93;75.90;101459.56;5055872;28;45292;-66
2021/12/21 06:41:33;;;;;;;;;27.75;18.75;;;;;1.92;76.32;101461.31;5055952;28;45409;-59
2021/12/21 06:44:00;;;;;;;;;17.75;14.75;;;;;1.92;75.69;101457.84;5056242;28;45843;-58
2021/12/21 06:51:54;;;;;;;;;24.75;19.50;;;;;1.78;76.57;101436.97;5058260;28;45347;-65
2021/12/21 06:54:21;;;;;;;;;22.75;18.25;;;;;1.80;76.33;101453.41;5059106;28;45502;-61
2021/12/21 06:56:46;;;;;;;;;25.00;19.25;;;;;1.79;76.12;101452.53;5057460;28;45400;-62
2021/12/21 06:59:13;;;;;;;;;22.75;19.75;;;;;1.77;77.10;101446.44;5055977;28;45324;-60
2021/12/21 07:01:39;;;;;;;;;18.00;16.50;;;;;1.77;76.88;101445.59;5056190;28;45468;-67
2021/12/21 07:04:07;;;;;;;;;20.25;17.00;;;;;1.74;77.13;101452.50;5056007;28;45297;-68
2021/12/21 07:06:35;;;;;;;;;25.75;18.00;;;;;1.72;77.31;101449.00;5055670;28;47777;-65
2021/12/21 07:09:18;;;;;;;;;23.00;19.75;;;;;1.72;77.22;101450.72;5058943;28;45447;-65
2021/12/21 07:11:46;;;;;;;;;24.25;19.50;;;;;1.66;76.74;101443.75;5055768;28;45402;-68
2021/12/21 07:19:43;;;;;;;;;23.00;21.25;;;;;1.54;77.01;101444.47;5055548;28;45239;-68
2021/12/21 07:22:09;;;;;;;;;26.25;17.75;;;;;1.57;77.51;101448.81;5059263;28;45446;-66
2021/12/21 07:24:35;;;;;;;;;22.00;18.00;;;;;1.51;77.87;101452.22;5059526;28;45169;-72
2021/12/21 07:27:01;;;;;;;;;27.50;21.25;;;;;1.51;77.51;101447.03;5059595;28;46628;-69
2021/12/21 07:29:26;;;;;;;;;20.75;18.50;;;;;1.48;77.47;101448.72;5061224;28;45395;-67
2021/12/21 07:31:53;;;;;;;;;24.00;18.75;;;;;1.49;77.35;101456.53;5059967;28;45314;-62
2021/12/21 07:34:18;;;;;;;;;23.75;18.50;;;;;1.49;77.81;101459.13;5059486;28;45597;-66
2021/12/21 07:36:44;;;;;;;;;17.50;16.50;;;;;1.48;77.96;101459.97;5058557;28;45969;-62
2021/12/21 07:39:13;;;;;;;;;25.75;19.00;;;;;1.48;77.63;101467.75;5058520;28;45374;-64
2021/12/21 07:41:39;;;;;;;;;19.50;18.50;;;;;1.47;77.84;101460.81;5058685;28;45248;-62
2021/12/21 07:44:05;;;;;;;;;28.25;21.75;;;;;1.46;77.50;101456.50;5059074;28;45538;-63
2021/12/21 07:46:31;;;;;;;;;26.75;17.00;;;;;1.49;77.64;101460.81;5058913;28;45469;-61
2021/12/21 07:48:56;;;;;;;;;23.00;19.50;;;;;1.45;77.86;101450.41;5058589;28;45289;-64
2021/12/21 07:51:23;;;;;;;;;18.75;12.75;;;;;1.44;77.67;101445.25;5059280;28;45405;-62
2021/12/21 07:53:49;;;;;;;;;26.75;18.25;;;;;1.51;77.09;101460.00;5059453;28;45276;-69
2021/12/21 07:56:16;;;;;;;;;25.00;16.75;;;;;1.43;77.10;101449.53;5059587;28;45252;-67
2021/12/21 07:58:42;;;;;;;;;26.50;19.00;;;;;1.55;78.40;101461.78;5058746;28;45187;-64
2021/12/21 08:01:07;;;;;;;;;51.00;39.75;;;;;1.59;77.65;101462.69;5058704;28;45403;-69
2021/12/21 08:03:34;;;;;;;;;22.75;20.00;;;;;1.56;77.58;101458.34;5058551;28;45231;-68
2021/12/21 08:06:04;;;;;;;;;26.00;23.25;;;;;1.56;77.87;101455.75;5058055;28;45385;-72
2021/12/21 08:08:31;;;;;;;;;20.75;14.25;;;;;1.60;76.96;101465.31;5058112;28;45265;-69
2021/12/21 08:11:28;;;;;;;;;21.25;17.25;;;;;1.66;76.94;101479.19;5058492;28;45281;-76
2021/12/21 08:13:56;;;;;;;;;19.00;18.75;;;;;1.63;76.99;101466.19;5060317;28;45370;-67
2021/12/21 08:16:22;;;;;;;;;26.75;23.00;;;;;1.64;77.29;101474.00;5033977;28;45523;-66
2021/12/21 08:18:47;;;;;;;;;37.75;25.25;;;;;1.59;77.75;101470.44;5054320;28;45387;-68
2021/12/21 08:21:16;;;;;;;;;24.50;22.75;;;;;1.64;77.01;101476.59;5043152;28;45305;-69
2021/12/21 08:23:42;;;;;;;;;31.50;25.50;;;;;1.69;78.22;101479.22;5042398;28;45600;-73
2021/12/21 08:26:07;;;;;;;;;33.25;30.50;;;;;1.69;77.06;101481.81;5040225;28;45364;-66
2021/12/21 08:28:33;;;;;;;;;30.00;20.75;;;;;1.67;76.92;101483.53;5043105;28;45159;-70
2021/12/21 08:30:59;;;;;;;;;29.25;23.00;;;;;1.63;76.92;101479.16;5061474;28;45248;-67
2021/12/21 08:33:24;;;;;;;;;29.75;25.25;;;;;1.50;77.25;101458.28;5058875;28;45296;-61
2021/12/21 08:35:49;;;;;;;;;26.75;21.50;;;;;1.57;77.87;101477.34;5041390;28;45299;-74
2021/12/21 08:38:17;;;;;;;;;30.50;22.00;;;;;1.57;78.00;101479.94;5040138;28;45233;-69
2021/12/21 08:40:48;;;;;;;;;29.00;23.00;;;;;1.51;77.44;101466.91;5042890;28;45398;-77
2021/12/21 08:43:18;;;;;;;;;36.50;25.50;;;;;1.59;77.08;101479.13;5048399;28;45296;-69
2021/12/21 08:45:46;;;;;;;;;28.50;20.75;;;;;1.60;77.31;101478.28;5051495;28;46138;-71
2021/12/21 08:48:13;;;;;;;;;31.75;24.50;;;;;1.62;77.50;101482.59;5054477;28;45352;-69
2021/12/21 08:50:38;;;;;;;;;27.25;19.75;;;;;1.55;77.42;101466.97;5049586;28;45359;-70
2021/12/21 08:53:05;;;;;;;;;25.00;18.25;;;;;1.62;77.12;101469.63;5054733;28;45719;-70
2021/12/21 08:55:31;;;;;;;;;37.50;31.50;;;;;1.66;77.23;101471.41;5039126;28;46510;-71
2021/12/21 08:57:56;;;;;;;;;29.00;22.25;;;;;1.65;77.27;101467.97;5042757;28;45569;-71
2021/12/21 09:00:22;;;;;;;;;30.00;25.00;;;;;1.68;77.28;101475.78;5057403;28;45472;-64
2021/12/21 09:02:49;;;;;;;;;28.25;24.25;;;;;1.64;76.98;101465.34;5057720;28;45652;-66
2021/12/21 09:05:18;;;;;;;;;22.50;20.75;;;;;1.69;76.82;101479.22;5055869;28;45535;-71
2021/12/21 09:07:47;;;;;;;;;29.00;25.50;;;;;1.71;77.61;101477.50;5056803;28;45339;-66
2021/12/21 09:10:15;;;;;;;;;26.75;24.50;;;;;1.73;76.69;101481.88;5056487;28;45376;-71
2021/12/21 09:12:41;;;;;;;;;27.25;23.25;;;;;1.73;76.60;101486.19;5057190;28;45322;-71
2021/12/21 09:15:08;;;;;;;;;37.00;24.50;;;;;1.72;76.65;101485.31;5056700;28;45502;-66
2021/12/21 09:17:35;;;;;;;;;28.00;21.25;;;;;1.74;76.90;101487.94;5056775;28;45294;-63
2021/12/21 09:20:00;;;;;;;;;34.00;23.75;;;;;1.78;76.29;101486.25;5056766;28;45464;-65
2021/12/21 09:22:26;;;;;;;;;25.50;23.25;;;;;1.80;76.72;101485.41;5055710;28;45535;-71
2021/12/21 09:24:51;;;;;;;;;31.50;24.75;;;;;1.86;76.64;101493.25;5038649;28;47896;-66
2021/12/21 09:27:18;;;;;;;;;23.50;20.75;;;;;1.90;75.94;101501.94;5060609;28;45421;-66
2021/12/21 09:29:45;;;;;;;;;28.00;26.00;;;;;1.93;76.11;101503.69;5056746;28;45303;-67
2021/12/21 09:32:13;;;;;;;;;36.75;29.50;;;;;1.95;76.56;101501.97;5056475;28;46482;-67
2021/12/21 09:34:42;;;;;;;;;88.67;75.67;;;;;1.92;76.06;101497.63;5055876;28;46622;-62
2021/12/21 09:37:14;;;;;;;;;26.25;24.00;;;;;1.92;75.87;101486.38;5056157;28;45426;-69
2021/12/21 09:39:44;;;;;;;;;42.50;32.25;;;;;1.94;75.61;101490.75;5056175;28;45275;-72
2021/12/21 09:42:13;;;;;;;;;31.50;29.75;;;;;1.98;75.86;101494.22;5057147;28;45505;-67
2021/12/21 09:44:39;;;;;;;;;29.75;27.25;;;;;1.92;75.98;101482.06;5056462;28;45630;-65
2021/12/21 09:47:06;;;;;;;;;79.00;60.50;;;;;2.03;75.84;101502.91;5056437;28;45324;-68
2021/12/21 09:49:32;;;;;;;;;23.75;20.75;;;;;2.06;75.56;101492.56;5055954;28;45454;-68
2021/12/21 09:51:57;;;;;;;;;35.50;28.00;;;;;2.09;75.51;101495.19;5056212;28;45340;-63
2021/12/21 09:54:25;;;;;;;;;43.75;33.25;;;;;2.16;75.35;101504.81;5038458;28;46647;-69
2021/12/21 09:56:50;;;;;;;;;33.25;31.75;;;;;2.21;75.10;101502.25;5036078;28;45306;-67
2021/12/21 09:59:16;;;;;;;;;30.50;26.75;;;;;2.26;75.55;101502.31;5036258;28;45429;-68
2021/12/21 10:01:41;;;;;;;;;29.50;24.75;;;;;2.27;75.54;101507.50;5041347;28;45364;-71
2021/12/21 10:04:07;;;;;;;;;35.00;29.50;;;;;2.30;75.45;101504.06;5042400;28;46841;-67
2021/12/21 10:06:43;;;;;;;;;32.50;30.00;;;;;2.28;75.24;101498.00;5059016;28;45200;-63
2021/12/21 10:09:08;;;;;;;;;41.75;32.25;;;;;2.40;75.95;101502.41;5057872;28;45446;-67
2021/12/21 10:11:47;;;;;;;;;33.50;28.25;;;;;2.46;74.80;101503.34;5039965;28;45552;-70
2021/12/21 10:14:15;;;;;;;;;34.75;30.25;;;;;2.53;75.03;101508.59;5063499;28;46071;-71
2021/12/21 10:16:40;;;;;;;;;26.50;21.00;;;;;2.61;74.73;101502.56;5055525;28;45252;-69
2021/12/21 10:19:06;;;;;;;;;36.75;25.75;;;;;2.67;74.15;101513.91;5037610;28;45387;-70
2021/12/21 10:21:32;;;;;;;;;35.75;30.00;;;;;2.72;73.69;101518.25;5055447;28;45304;-66
2021/12/21 10:23:57;;;;;;;;;35.25;29.25;;;;;2.54;74.46;101474.81;5055868;28;46276;-62
2021/12/21 10:26:28;;;;;;;;;32.50;26.75;;;;;2.79;73.25;101506.19;5055080;28;45289;-65
2021/12/21 10:29:00;;;;;;;;;30.00;26.25;;;;;2.77;73.47;101503.56;5066942;28;45433;-64
2021/12/21 10:31:39;;;;;;;;;29.00;24.00;;;;;2.82;73.22;101503.63;5058830;28;45359;-62
2021/12/21 10:34:10;;;;;;;;;32.00;26.50;;;;;2.86;73.35;101504.47;5057893;28;46029;-68
2021/12/21 10:36:45;;;;;;;;;27.25;23.00;;;;;2.91;72.82;101503.66;5054139;28;46224;-63
2021/12/21 10:39:22;;;;;;;;;36.75;29.00;;;;;2.97;73.32;101489.81;5036962;28;45253;-65
2021/12/21 10:41:48;;;;;;;;;34.00;25.75;;;;;3.01;72.97;101488.97;5037235;28;45277;-67
2021/12/21 10:44:18;;;;;;;;;38.75;27.25;;;;;3.05;73.03;101490.75;5032046;28;47154;-68
2021/12/21 10:46:47;;;;;;;;;26.75;22.25;;;;;3.07;72.82;101481.22;5039096;28;45423;-66
2021/12/21 10:49:17;;;;;;;;;30.75;22.25;;;;;3.11;72.33;101486.44;5036688;28;45439;-69
2021/12/21 10:51:57;;;;;;;;;28.75;23.50;;;;;3.11;72.73;101486.44;5054358;28;45685;-67
2021/12/21 10:54:32;;;;;;;;;36.50;26.00;;;;;3.16;72.30;101482.13;5052414;28;46981;-67
2021/12/21 10:56:59;;;;;;;;;33.00;26.00;;;;;3.14;71.72;101479.53;5039728;28;45371;-67
2021/12/21 10:59:33;;;;;;;;;35.50;25.75;;;;;3.19;72.48;101487.38;5060272;28;45486;-71
2021/12/21 11:02:11;;;;;;;;;36.75;24.75;;;;;3.10;71.81;101464.78;5058893;28;45561;-63
2021/12/21 11:04:39;;;;;;;;;29.50;26.75;;;;;3.26;71.11;101483.94;5039372;28;48175;-69
2021/12/21 11:09:57;;;;;;;;;36.75;33.25;;;;;3.29;72.01;101488.28;5055453;28;45389;-66
2021/12/21 11:12:24;;;;;;;;;34.00;29.50;;;;;3.28;71.50;101491.72;5037515;28;45477;-70
2021/12/21 11:14:53;;;;;;;;;40.25;28.75;;;;;3.30;71.17;101493.50;5057714;28;47040;-67
2021/12/21 11:17:20;;;;;;;;;29.25;23.25;;;;;3.29;71.67;101496.97;5060604;28;46511;-62
2021/12/21 11:19:45;;;;;;;;;52.00;41.25;;;;;3.33;70.97;101488.31;5065689;28;45425;-73
2021/12/21 11:22:12;;;;;;;;;34.75;30.25;;;;;3.29;71.68;101476.16;5057478;28;45343;-71
2021/12/21 11:24:39;;;;;;;;;42.00;33.75;;;;;3.37;71.32;101483.97;5055697;28;45292;-64
2021/12/21 11:27:05;;;;;;;;;39.00;27.50;;;;;3.33;70.51;101470.09;5054927;28;45363;-70
2021/12/21 11:29:34;;;;;;;;;30.50;23.50;;;;;3.39;70.69;101468.38;5055483;28;45437;-72
2021/12/21 11:32:03;;;;;;;;;25.25;23.75;;;;;3.43;71.47;101465.78;5057325;28;45544;-60
2021/12/21 11:34:33;;;;;;;;;30.00;24.00;;;;;3.38;71.28;101438.03;5054821;28;46064;-60
2021/12/21 11:39:43;;;;;;;;;38.50;30.25;;;;;3.60;70.77;101457.16;5055281;28;45379;-64
2021/12/21 11:42:30;;;;;;;;;37.00;32.25;;;;;3.29;71.05;101385.13;5056054;28;45631;-59
2021/12/21 11:45:17;;;;;;;;;34.75;28.75;;;;;3.73;71.13;101451.16;5055372;28;46129;-60
2021/12/21 11:48:10;;;;;;;;;31.00;29.75;;;;;3.77;70.28;101449.41;5055665;28;45332;-66
2021/12/21 11:50:45;;;;;;;;;34.25;29.75;;;;;3.84;71.13;101453.75;5054649;28;45307;-60
2021/12/21 11:53:13;;;;;;;;;45.00;35.75;;;;;3.75;69.96;101427.72;5054235;28;45379;-64
2021/12/21 11:55:42;;;;;;;;;31.00;28.25;;;;;3.90;69.86;101445.97;5054161;28;45791;-71
2021/12/21 11:58:32;;;;;;;;;36.25;30.25;;;;;3.79;69.62;101445.97;5053924;28;45372;-62
2021/12/21 12:01:01;;;;;;;;;40.00;30.00;;;;;3.76;69.23;101442.47;5054078;28;45349;-68
2021/12/21 12:03:29;;;;;;;;;33.50;31.00;;;;;3.74;69.80;101439.88;5054532;28;45487;-63
2021/12/21 12:06:02;;;;;;;;;40.00;36.00;;;;;3.80;70.43;101436.41;5033755;28;45612;-70
2021/12/21 12:08:42;;;;;;;;;25.00;23.50;;;;;3.82;69.59;101442.47;5037716;28;45799;-61
2021/12/21 12:11:08;;;;;;;;;45.75;34.75;;;;;3.89;70.00;101435.56;5038741;28;45249;-68
2021/12/21 12:13:37;;;;;;;;;49.50;35.25;;;;;3.92;69.75;101427.75;5044751;28;45606;-71
2021/12/21 12:16:08;;;;;;;;;36.25;30.50;;;;;4.00;69.62;101428.63;5036863;28;48423;-73
2021/12/21 12:18:41;;;;;;;;;32.25;29.00;;;;;4.02;69.69;101420.81;5037553;28;45327;-61
2021/12/21 12:21:13;;;;;;;;;39.00;34.00;;;;;4.01;68.69;101406.06;5057724;28;45458;-71
2021/12/21 12:23:55;;;;;;;;;39.00;35.00;;;;;3.97;68.86;101413.00;5058065;28;45331;-74